Time;durP1;ratioP1;P1;durP2;ratioP2;P2;SDS_P1;SDS_P2;PMS_P1;PMS_P2;Temp;Humidity;BMP_temperature;BMP_pressure;BME280_temperature;BME280_humidity;BME280_pressure;Samples;Min_cycle;Max_cycle;Signal;HPM_P1;HPM_P2
2023/06/22 00:00:44;;;;;;;7.90;4.70;;;;;;;24.36;52.29;99040.16;4920858;29;20066;-73
2023/06/22 00:03:10;;;;;;;5.50;4.43;;;;;;;24.33;52.47;99035.22;4921400;29;20028;-73
2023/06/22 00:05:35;;;;;;;7.60;4.95;;;;;;;24.28;51.83;99033.13;4938109;29;20403;-73
2023/06/22 00:08:03;;;;;;;6.45;4.50;;;;;;;24.29;52.21;99033.94;4943965;29;20086;-73
2023/06/22 00:10:28;;;;;;;;;;;;;;;24.27;51.95;99041.34;4956317;29;20455;-72
2023/06/22 00:12:54;;;;;;;7.57;4.85;;;;;;;24.18;52.31;99043.34;4956934;29;19942;-73
2023/06/22 00:15:19;;;;;;;7.80;4.93;;;;;;;24.18;52.38;99035.38;4955517;29;20042;-72
2023/06/22 00:17:45;;;;;;;7.68;4.93;;;;;;;24.11;52.65;99029.16;4956556;28;20471;-73
2023/06/22 00:20:11;;;;;;;9.70;4.70;;;;;;;24.07;53.02;99031.41;4956129;28;20039;-72
2023/06/22 00:22:38;;;;;;;6.78;4.90;;;;;;;24.00;53.26;99033.19;4939764;29;20555;-72
2023/06/22 00:25:06;;;;;;;7.10;5.22;;;;;;;23.96;53.29;99037.28;4955496;28;20031;-73
2023/06/22 00:27:32;;;;;;;5.93;4.68;;;;;;;23.99;53.66;99039.56;4956706;28;20090;-73
2023/06/22 00:29:57;;;;;;;8.57;4.80;;;;;;;24.01;53.32;99041.00;4957246;28;20039;-73
2023/06/22 00:32:22;;;;;;;6.32;5.03;;;;;;;23.99;53.46;99043.06;4956471;28;20036;-73
2023/06/22 00:34:48;;;;;;;7.13;4.90;;;;;;;24.01;53.74;99041.00;4955634;29;20557;-72
2023/06/22 00:37:13;;;;;;;8.82;5.05;;;;;;;23.99;53.91;99037.72;4939861;29;20031;-73
2023/06/22 00:39:39;;;;;;;11.32;4.95;;;;;;;23.94;54.17;99029.50;4955582;29;20095;-72
2023/06/22 00:42:05;;;;;;;8.27;5.07;;;;;;;23.91;54.16;99026.38;4955316;28;20474;-73
2023/06/22 00:44:30;;;;;;;6.95;4.90;;;;;;;23.93;54.08;99035.84;4939892;29;20039;-73
2023/06/22 00:46:55;;;;;;;13.10;4.90;;;;;;;23.91;54.00;99037.03;4939742;29;20054;-72
2023/06/22 00:49:21;;;;;;;6.25;4.90;;;;;;;23.87;54.13;99027.81;4955304;29;20042;-73
2023/06/22 00:51:47;;;;;;;7.57;4.72;;;;;;;23.84;53.92;99023.69;4955343;29;20183;-72
2023/06/22 00:54:13;;;;;;;5.25;4.63;;;;;;;23.79;53.75;99039.41;4955153;29;20063;-72
2023/06/22 00:56:40;;;;;;;7.22;4.88;;;;;;;23.72;53.86;99041.19;4939538;29;20043;-73
2023/06/22 00:59:06;;;;;;;6.80;4.80;;;;;;;23.64;53.93;99029.69;4955096;29;20098;-73
2023/06/22 01:01:32;;;;;;;6.78;5.05;;;;;;;23.48;54.90;99037.94;4939296;29;20047;-72
2023/06/22 01:03:58;;;;;;;11.70;5.57;;;;;;;23.50;54.59;99038.59;4955573;28;20042;-73
2023/06/22 01:06:38;;;;;;;8.15;5.20;;;;;;;23.48;55.13;99033.47;4956316;28;20031;-73
2023/06/22 01:09:15;;;;;;;9.95;4.88;;;;;;;23.47;54.83;99028.34;4955423;28;20023;-73
2023/06/22 01:11:45;;;;;;;8.90;4.90;;;;;;;23.46;54.76;99032.00;4955399;28;20567;-73
2023/06/22 01:14:26;;;;;;;9.38;4.85;;;;;;;23.44;54.48;99026.06;4955065;29;20063;-73
2023/06/22 01:16:52;;;;;;;6.45;4.53;;;;;;;23.39;54.60;99029.28;4954873;29;20509;-73
2023/06/22 01:19:25;;;;;;;9.25;4.97;;;;;;;23.34;54.78;99029.06;4954825;29;20032;-73
2023/06/22 01:21:51;;;;;;;6.55;4.78;;;;;;;23.28;54.99;99025.31;4954760;28;20083;-72
2023/06/22 01:24:23;;;;;;;7.97;4.90;;;;;;;23.28;55.18;99019.97;4939001;29;20099;-73
2023/06/22 01:26:54;;;;;;;8.35;4.47;;;;;;;23.26;55.24;99022.03;4954939;29;20035;-72
2023/06/22 01:29:19;;;;;;;8.10;4.68;;;;;;;23.23;55.40;99008.25;4954907;29;20402;-72
2023/06/22 01:31:45;;;;;;;5.78;4.93;;;;;;;23.21;55.13;99012.94;4954957;29;20039;-73
2023/06/22 01:34:10;;;;;;;5.43;4.90;;;;;;;23.21;54.90;99011.09;4954478;29;20050;-73
2023/06/22 01:36:36;;;;;;;6.75;5.10;;;;;;;23.15;55.09;99016.38;4954949;28;20546;-73
2023/06/22 01:39:03;;;;;;;6.63;4.97;;;;;;;23.12;55.36;98998.97;4938827;29;20035;-72
2023/06/22 01:41:29;;;;;;;6.80;4.83;;;;;;;23.08;55.52;99005.69;4954613;28;20114;-73
2023/06/22 01:43:55;;;;;;;5.68;5.05;;;;;;;23.08;55.46;99009.16;4938403;29;20861;-72
2023/06/22 01:46:21;;;;;;;8.90;5.13;;;;;;;23.10;55.27;99006.28;4954627;28;20114;-73
2023/06/22 01:48:46;;;;;;;6.72;5.05;;;;;;;23.13;55.05;99003.25;4954290;28;20039;-73
2023/06/22 01:51:12;;;;;;;6.47;4.68;;;;;;;23.10;55.38;99000.97;4938411;29;20491;-73
2023/06/22 01:53:37;;;;;;;10.95;4.60;;;;;;;23.09;55.19;98999.34;4954137;28;20420;-72
2023/06/22 01:56:03;;;;;;;9.02;4.75;;;;;;;23.08;55.48;99003.00;4937984;29;20126;-73
2023/06/22 01:58:29;;;;;;;6.97;5.45;;;;;;;23.04;55.62;99007.03;4938252;29;20399;-72
2023/06/22 02:01:19;;;;;;;7.57;4.93;;;;;;;23.04;55.40;99009.69;4955217;28;20035;-72
2023/06/22 02:03:48;;;;;;;9.48;5.03;;;;;;;23.00;55.29;99003.94;4953575;29;20036;-73
2023/06/22 02:06:16;;;;;;;8.68;5.03;;;;;;;23.02;55.68;99007.22;4938227;29;20061;-72
2023/06/22 02:08:48;;;;;;;9.27;5.50;;;;;;;22.99;55.61;99009.44;4922379;29;20590;-73
2023/06/22 02:11:15;;;;;;;7.47;5.30;;;;;;;22.98;55.97;99011.28;4953987;29;20046;-72
2023/06/22 02:13:42;;;;;;;8.98;4.85;;;;;;;22.95;55.98;99014.34;4953915;29;20031;-72
2023/06/22 02:16:10;;;;;;;7.28;5.10;;;;;;;22.94;55.77;99026.00;4938539;29;20039;-72
2023/06/22 02:18:36;;;;;;;6.38;4.45;;;;;;;22.90;55.39;99025.56;4953843;28;20031;-73
2023/06/22 02:21:02;;;;;;;14.20;5.18;;;;;;;22.74;56.23;99029.28;4953791;28;20475;-73
2023/06/22 02:23:28;;;;;;;5.80;4.55;;;;;;;22.72;56.54;99030.47;4954876;28;20042;-73
2023/06/22 02:25:53;;;;;;;7.03;5.05;;;;;;;22.74;56.62;99037.28;4953852;28;20035;-72
2023/06/22 02:28:19;;;;;;;6.57;5.03;;;;;;;22.74;56.69;99034.59;4954715;28;20027;-73
2023/06/22 02:30:44;;;;;;;11.32;5.70;;;;;;;22.69;56.30;99022.88;4938517;29;20047;-73
2023/06/22 02:33:10;;;;;;;7.90;5.78;;;;;;;22.70;56.31;99021.88;4937769;29;20098;-72
2023/06/22 02:35:35;;;;;;;12.05;5.35;;;;;;;22.67;56.76;99032.88;4938077;29;20073;-73
2023/06/22 02:38:02;;;;;;;10.93;5.20;;;;;;;22.68;56.70;99029.22;4953385;29;20035;-72
2023/06/22 02:40:29;;;;;;;8.40;5.47;;;;;;;22.72;56.70;99036.63;4953523;28;20031;-72
2023/06/22 02:42:54;;;;;;;9.40;4.90;;;;;;;22.71;56.55;99034.16;4953362;29;20062;-73
2023/06/22 02:45:20;;;;;;;7.78;5.32;;;;;;;22.74;56.70;99036.44;4937525;29;20038;-72
2023/06/22 02:47:47;;;;;;;6.35;5.05;;;;;;;22.72;56.20;99041.97;4953375;29;20031;-73
2023/06/22 02:50:13;;;;;;;7.30;5.30;;;;;;;22.70;56.36;99037.81;4953173;28;20039;-72
2023/06/22 02:52:39;;;;;;;7.60;5.13;;;;;;;22.72;56.45;99039.31;4954354;28;20038;-73
2023/06/22 02:55:05;;;;;;;7.22;5.45;;;;;;;22.66;56.67;99041.88;4953129;28;20427;-73
2023/06/22 02:57:31;;;;;;;7.40;5.32;;;;;;;22.69;56.87;99046.81;4954181;28;20023;-73
2023/06/22 02:59:56;;;;;;;11.57;5.32;;;;;;;22.74;56.51;99047.91;4954874;28;20035;-73
2023/06/22 03:02:22;;;;;;;6.28;5.15;;;;;;;22.82;56.55;99049.63;4954357;28;20035;-73
2023/06/22 03:04:50;;;;;;;8.45;5.40;;;;;;;22.92;56.19;99047.47;4953190;28;20035;-73
2023/06/22 03:07:17;;;;;;;;;;;;;;;22.89;56.05;99055.84;4953457;29;20023;-72
2023/06/22 03:09:43;;;;;;;7.78;5.50;;;;;;;22.88;55.36;99050.69;4953155;29;19910;-73
2023/06/22 03:12:08;;;;;;;7.22;5.30;;;;;;;22.90;55.44;99046.84;4954257;28;20043;-73
2023/06/22 03:14:34;;;;;;;10.25;5.25;;;;;;;23.09;55.81;99045.44;4952891;29;20067;-74
2023/06/22 03:17:02;;;;;;;8.05;5.10;;;;;;;23.47;55.27;99044.31;4953167;29;20027;-73
2023/06/22 03:19:29;;;;;;;5.50;4.70;;;;;;;23.62;54.57;99036.22;4953339;29;20517;-73
2023/06/22 03:21:55;;;;;;;6.82;5.30;;;;;;;23.61;54.79;99038.06;4953125;29;20039;-73
2023/06/22 03:24:20;;;;;;;5.78;5.10;;;;;;;23.66;54.47;99032.97;4953224;29;20041;-72
2023/06/22 03:26:46;;;;;;;12.60;5.05;;;;;;;23.98;53.33;99033.41;4952523;28;20500;-73
2023/06/22 03:29:12;;;;;;;8.48;5.10;;;;;;;24.45;52.13;99038.94;4952778;28;20071;-73
2023/06/22 03:31:37;;;;;;;9.88;5.20;;;;;;;24.84;50.75;99040.13;4952753;29;20027;-73
2023/06/22 03:34:03;;;;;;;6.35;4.60;;;;;;;25.23;50.14;99045.72;4936911;29;20097;-70
2023/06/22 03:36:28;;;;;;;6.57;4.97;;;;;;;25.53;48.75;99048.00;4953969;28;20031;-77
2023/06/22 03:38:55;;;;;;;9.15;5.03;;;;;;;25.90;48.22;99051.03;4937110;29;20458;-70
2023/06/22 03:41:21;;;;;;;32.30;4.68;;;;;;;26.23;48.65;99047.47;4937029;29;20298;-69
2023/06/22 03:43:47;;;;;;;16.02;5.07;;;;;;;26.10;48.20;99049.16;4952713;29;20031;-69
2023/06/22 03:46:12;;;;;;;14.00;4.80;;;;;;;26.10;48.42;99045.69;4953450;28;20043;-69
2023/06/22 03:48:38;;;;;;;9.57;4.60;;;;;;;26.11;48.15;99040.13;4953919;28;20038;-72
2023/06/22 03:51:03;;;;;;;7.75;4.53;;;;;;;26.17;48.75;99047.31;4953194;29;20133;-69
2023/06/22 03:53:29;;;;;;;17.88;5.22;;;;;;;26.16;47.88;99042.16;4936922;29;20044;-67
2023/06/22 03:55:55;;;;;;;10.23;4.65;;;;;;;26.27;47.57;99048.72;4952423;28;20083;-71
2023/06/22 03:58:20;;;;;;;7.10;5.03;;;;;;;26.39;47.29;99043.50;4936990;29;20561;-71
2023/06/22 04:00:47;;;;;;;12.27;4.85;;;;;;;26.43;47.10;99042.06;4936538;29;20032;-72
2023/06/22 04:03:13;;;;;;;9.68;4.70;;;;;;;26.38;47.43;99034.66;4952574;29;20114;-68
2023/06/22 04:05:39;;;;;;;15.38;5.25;;;;;;;26.23;47.82;99040.25;4953191;28;20414;-69
2023/06/22 04:08:05;;;;;;;16.02;4.93;;;;;;;26.15;48.18;99045.84;4949916;28;20051;-70
2023/06/22 04:10:30;;;;;;;13.80;5.20;;;;;;;26.08;48.82;99029.84;4945195;28;20035;-67
2023/06/22 04:12:56;;;;;;;8.90;4.82;;;;;;;25.98;48.37;99045.47;4943492;28;20480;-70
2023/06/22 04:15:22;;;;;;;10.10;5.65;;;;;;;25.95;49.21;99052.06;4901841;29;20055;-72
2023/06/22 04:17:47;;;;;;;7.13;5.53;;;;;;;25.91;49.27;99056.16;4918051;29;20031;-74
2023/06/22 04:20:12;;;;;;;7.82;5.25;;;;;;;25.75;49.48;99051.28;4927482;29;20118;-73
2023/06/22 04:22:38;;;;;;;8.93;5.00;;;;;;;25.69;49.26;99058.25;4948147;28;20526;-73
2023/06/22 04:25:05;;;;;;;7.55;5.38;;;;;;;25.73;48.93;99064.84;4953081;28;20039;-73
2023/06/22 04:27:31;;;;;;;13.20;5.60;;;;;;;25.66;49.16;99063.22;4953654;28;20031;-73
2023/06/22 04:30:00;;;;;;;14.52;5.68;;;;;;;25.70;49.42;99069.81;4954798;29;20027;-72
2023/06/22 04:32:25;;;;;;;13.15;5.85;;;;;;;25.69;49.81;99071.63;4939212;29;20132;-73
2023/06/22 04:34:52;;;;;;;9.30;5.88;;;;;;;25.69;49.82;99068.97;4955959;28;20086;-73
2023/06/22 04:37:17;;;;;;;9.52;5.25;;;;;;;25.75;49.16;99075.34;4938768;29;20054;-72
2023/06/22 04:39:43;;;;;;;10.75;5.47;;;;;;;25.81;49.60;99083.34;4956082;28;20490;-72
2023/06/22 04:42:08;;;;;;;12.38;5.55;;;;;;;25.90;49.41;99075.94;4955561;29;20039;-72
2023/06/22 04:44:34;;;;;;;9.52;5.38;;;;;;;25.97;49.60;99087.47;4948217;28;20035;-73
2023/06/22 04:47:03;;;;;;;9.48;5.25;;;;;;;26.09;48.80;99085.00;4940902;28;20043;-73
2023/06/22 04:49:35;;;;;;;14.98;5.18;;;;;;;26.48;47.91;99085.06;4941197;28;20027;-72
2023/06/22 04:52:05;;;;;;;11.68;5.03;;;;;;;27.93;44.44;99081.63;4954154;28;20039;-72
2023/06/22 04:54:33;;;;;;;15.55;5.50;;;;;;;27.89;44.45;99090.34;4935723;28;20051;-72
2023/06/22 04:57:03;;;;;;;15.90;5.28;;;;;;;27.78;44.77;99090.03;4953251;29;20511;-72
2023/06/22 04:59:29;;;;;;;17.17;5.63;;;;;;;27.95;44.18;99092.97;4952841;28;20181;-72
2023/06/22 05:01:59;;;;;;;8.80;5.50;;;;;;;29.48;41.40;99088.59;4938374;29;20388;-73
2023/06/22 05:04:25;;;;;;;17.92;5.85;;;;;;;30.94;38.71;99093.03;4946051;28;20027;-73
2023/06/22 05:06:53;;;;;;;16.25;5.00;;;;;;;32.16;36.25;99100.69;4941843;28;20047;-74
2023/06/22 05:09:19;;;;;;;10.63;4.93;;;;;;;33.22;34.19;99092.44;4938539;29;20376;-73
2023/06/22 05:11:45;;;;;;;12.98;4.70;;;;;;;34.17;32.74;99089.03;4936961;29;20094;-72
2023/06/22 05:14:10;;;;;;;8.25;4.15;;;;;;;35.03;31.54;99085.00;4952039;28;20548;-73
2023/06/22 05:16:40;;;;;;;5.75;3.97;;;;;;;35.82;30.15;99091.00;4942706;28;20042;-75
2023/06/22 05:19:06;;;;;;;8.60;4.28;;;;;;;36.65;29.10;99090.69;4935191;29;20035;-75
2023/06/22 05:21:31;;;;;;;9.07;4.43;;;;;;;37.26;28.55;99092.25;4919481;29;20059;-74
2023/06/22 05:24:02;;;;;;;6.38;3.95;;;;;;;37.81;27.64;99083.81;4920393;29;20134;-74
2023/06/22 05:26:28;;;;;;;9.68;4.50;;;;;;;38.31;27.23;99086.28;4920253;29;20042;-75
2023/06/22 05:28:53;;;;;;;10.27;4.22;;;;;;;38.89;26.08;99085.25;4935907;29;20024;-75
2023/06/22 05:31:22;;;;;;;13.57;4.68;;;;;;;39.36;25.01;99091.59;4936008;29;20058;-74
2023/06/22 05:33:49;;;;;;;15.80;4.30;;;;;;;39.82;24.20;99089.16;4935326;29;20439;-75
2023/06/22 05:36:14;;;;;;;7.28;3.28;;;;;;;40.19;23.53;99088.19;4935256;29;20090;-72
2023/06/22 05:38:40;;;;;;;23.33;3.92;;;;;;;40.77;23.63;99085.84;4946221;29;20036;-81
2023/06/22 05:41:06;;;;;;;17.60;4.15;;;;;;;41.14;23.38;99084.69;4935534;29;20134;-78
2023/06/22 05:43:31;;;;;;;14.02;3.55;;;;;;;41.68;22.77;99086.63;4935107;29;20042;-78
2023/06/22 05:45:57;;;;;;;16.65;3.65;;;;;;;42.06;22.03;99086.16;4935449;29;20074;-82
2023/06/22 05:48:22;;;;;;;14.88;3.03;;;;;;;42.33;21.82;99084.31;4935423;29;20042;-81
2023/06/22 05:50:48;;;;;;;14.18;3.40;;;;;;;42.60;21.14;99081.28;4935405;29;20047;-82
2023/06/22 05:53:13;;;;;;;8.67;3.10;;;;;;;42.82;21.18;99085.00;4936585;29;20035;-84
2023/06/22 05:55:39;;;;;;;13.53;3.70;;;;;;;42.98;20.77;99077.91;4935189;29;20063;-83
2023/06/22 05:58:05;;;;;;;15.13;3.30;;;;;;;43.08;20.43;99076.78;4919308;29;20108;-81
2023/06/22 06:00:30;;;;;;;14.83;3.63;;;;;;;43.16;20.32;99075.97;4918994;29;20027;-75
2023/06/22 06:02:56;;;;;;;10.23;3.10;;;;;;;42.94;20.24;99068.69;4935873;29;20115;-75
2023/06/22 06:05:22;;;;;;;6.17;3.00;;;;;;;42.82;20.83;99071.28;4918651;29;20043;-76
2023/06/22 06:07:48;;;;;;;11.45;3.10;;;;;;;42.74;20.85;99070.16;4926167;29;20051;-76
2023/06/22 06:10:13;;;;;;;12.47;3.73;;;;;;;42.75;20.56;99062.75;4937985;29;20031;-75
2023/06/22 06:12:39;;;;;;;11.13;3.57;;;;;;;42.64;20.96;99065.00;4934624;29;20028;-76
2023/06/22 06:15:05;;;;;;;5.47;3.20;;;;;;;42.65;20.93;99066.59;4935762;29;20082;-76
2023/06/22 06:17:30;;;;;;;7.10;3.30;;;;;;;42.62;21.21;99059.00;4918588;29;20091;-75
2023/06/22 06:19:56;;;;;;;8.23;3.50;;;;;;;42.64;20.84;99056.78;4934639;29;20039;-77
2023/06/22 06:22:23;;;;;;;9.20;3.27;;;;;;;42.66;21.16;99060.78;4919403;29;20455;-75
2023/06/22 06:24:49;;;;;;;21.00;4.30;;;;;;;42.68;20.92;99056.94;4935671;29;20067;-75
2023/06/22 06:27:14;;;;;;;26.67;5.20;;;;;;;42.70;21.21;99052.75;4935546;29;20126;-74
2023/06/22 06:29:40;;;;;;;12.23;4.23;;;;;;;42.74;20.86;99053.69;4935525;29;20034;-76
2023/06/22 06:32:06;;;;;;;17.80;4.97;;;;;;;42.72;20.75;99057.91;4934372;29;20055;-74
2023/06/22 06:34:31;;;;;;;8.30;3.60;;;;;;;42.76;20.98;99048.66;4918474;29;20544;-80
2023/06/22 06:36:57;;;;;;;12.13;4.33;;;;;;;42.90;20.77;99047.72;4937006;28;20510;-76
2023/06/22 06:39:22;;;;;;;7.53;3.43;;;;;;;43.13;20.73;99049.16;4933002;29;20039;-76
2023/06/22 06:41:48;;;;;;;9.20;3.53;;;;;;;43.37;20.24;99048.59;4937151;28;20510;-80
2023/06/22 06:44:13;;;;;;;7.13;4.00;;;;;;;43.34;20.54;99059.44;4934324;29;20407;-71
2023/06/22 06:46:39;;;;;;;8.37;3.83;;;;;;;42.93;20.51;99052.53;4952817;29;20035;-71
2023/06/22 06:49:04;;;;;;;13.10;4.10;;;;;;;42.69;20.76;99062.09;4954597;28;20028;-72
2023/06/22 06:51:30;;;;;;;8.03;3.53;;;;;;;42.49;20.95;99052.53;4953541;29;20035;-73
2023/06/22 06:53:55;;;;;;;11.43;4.00;;;;;;;42.29;21.01;99049.28;4936794;29;20411;-73
2023/06/22 06:56:21;;;;;;;11.30;4.80;;;;;;;42.21;21.60;99054.75;4918080;29;20119;-71
2023/06/22 06:58:46;;;;;;;16.67;5.17;;;;;;;42.14;22.16;99057.97;4934308;29;20595;-73
2023/06/22 07:01:12;;;;;;;11.98;4.97;;;;;;;41.99;22.14;99061.13;4934939;29;20043;-74
2023/06/22 07:03:38;;;;;;;13.40;5.33;;;;;;;41.82;23.41;99054.47;4934177;28;20024;-73
2023/06/22 07:06:04;;;;;;;9.07;4.38;;;;;;;41.54;23.73;99062.88;4932062;29;20287;-72
2023/06/22 07:08:29;;;;;;;9.00;4.23;;;;;;;41.31;23.43;99061.31;4935019;29;20476;-73
2023/06/22 07:10:55;;;;;;;10.23;4.50;;;;;;;41.14;23.53;99059.25;4933897;29;20031;-71
2023/06/22 07:13:20;;;;;;;9.90;4.93;;;;;;;41.09;24.20;99062.09;4933679;29;20485;-71
2023/06/22 07:15:46;;;;;;;7.47;4.00;;;;;;;41.00;24.02;99082.03;4933994;29;20040;-73
2023/06/22 07:18:11;;;;;;;9.32;4.05;;;;;;;40.81;24.76;99081.38;4944947;28;20488;-71
2023/06/22 07:20:39;;;;;;;8.02;3.83;;;;;;;40.70;24.84;99075.31;4917938;29;20353;-70
2023/06/22 07:23:04;;;;;;;7.22;4.18;;;;;;;40.51;25.11;99079.03;4917949;29;20028;-71
2023/06/22 07:25:30;;;;;;;11.95;4.20;;;;;;;40.34;25.47;99078.81;4926065;29;20024;-73
2023/06/22 07:28:01;;;;;;;6.43;3.85;;;;;;;40.11;25.48;99078.75;4933406;29;20035;-72
2023/06/22 07:30:27;;;;;;;8.68;4.22;;;;;;;39.89;25.38;99081.38;4921082;29;20027;-72
2023/06/22 07:32:53;;;;;;;8.35;4.32;;;;;;;39.68;25.82;99089.13;4945286;28;20375;-73
2023/06/22 07:35:18;;;;;;;7.63;3.95;;;;;;;39.53;25.85;99082.03;4941957;28;20057;-76
2023/06/22 07:37:44;;;;;;;6.43;4.00;;;;;;;39.85;25.47;99091.28;4943994;28;20031;-76
2023/06/22 07:40:10;;;;;;;7.03;3.90;;;;;;;40.10;24.98;99082.59;4933476;29;20043;-76
2023/06/22 07:42:35;;;;;;;6.22;3.88;;;;;;;40.22;24.79;99084.84;4934446;29;20106;-78
2023/06/22 07:45:02;;;;;;;7.15;4.22;;;;;;;40.33;24.71;99082.69;4917822;29;20115;-77
2023/06/22 07:47:28;;;;;;;;;;;;;;;40.02;25.26;99083.31;4934118;29;20043;-71
2023/06/22 07:49:55;;;;;;;7.87;4.30;;;;;;;39.72;24.97;99079.25;4934863;29;20323;-73
2023/06/22 07:52:21;;;;;;;7.28;4.00;;;;;;;39.31;25.39;99082.69;4933639;29;20036;-78
2023/06/22 07:54:46;;;;;;;11.38;3.33;;;;;;;39.32;25.53;99081.56;4905923;29;20143;-78
2023/06/22 07:57:12;;;;;;;7.20;3.58;;;;;;;39.38;25.22;99088.56;4937795;29;20039;-78
2023/06/22 07:59:38;;;;;;;5.75;3.00;;;;;;;39.49;24.93;99084.53;4921457;29;20039;-73
2023/06/22 08:02:04;;;;;;;5.85;2.97;;;;;;;39.52;24.86;99083.13;4937677;29;20158;-78
2023/06/22 08:04:31;;;;;;;6.53;3.13;;;;;;;39.60;24.71;99093.41;4937157;29;20475;-75
2023/06/22 08:06:57;;;;;;;3.95;3.00;;;;;;;39.64;25.14;99079.94;4936969;29;20138;-78
2023/06/22 08:09:22;;;;;;;5.00;3.05;;;;;;;39.64;24.77;99083.47;4937018;29;20031;-76
2023/06/22 08:11:49;;;;;;;6.88;3.55;;;;;;;39.49;25.50;99076.34;4938008;29;20031;-76
2023/06/22 08:14:14;;;;;;;8.98;3.38;;;;;;;39.47;25.52;99083.22;4938031;29;20098;-74
2023/06/22 08:16:41;;;;;;;7.70;3.42;;;;;;;39.40;25.86;99086.34;4936700;29;20035;-75
2023/06/22 08:19:07;;;;;;;6.05;3.08;;;;;;;39.13;26.06;99078.88;4928941;29;20106;-73
2023/06/22 08:21:32;;;;;;;8.43;3.70;;;;;;;39.14;25.62;99083.22;4932264;28;20031;-72
2023/06/22 08:23:58;;;;;;;5.05;3.30;;;;;;;39.03;26.24;99072.47;4930729;28;20527;-72
2023/06/22 08:26:23;;;;;;;11.55;3.47;;;;;;;39.14;25.89;99083.22;4937957;28;20050;-72
2023/06/22 08:28:49;;;;;;;6.38;3.30;;;;;;;39.20;25.06;99082.03;4904965;29;20127;-73
2023/06/22 08:31:15;;;;;;;5.25;3.10;;;;;;;39.21;25.11;99076.28;4920923;29;20043;-72
2023/06/22 08:33:41;;;;;;;6.80;3.50;;;;;;;39.22;24.96;99088.00;4939588;29;20050;-73
2023/06/22 08:36:08;;;;;;;7.75;3.67;;;;;;;39.19;24.78;99083.13;4941617;29;20271;-73
2023/06/22 08:38:33;;;;;;;;;;;;;;;39.12;24.62;99085.44;4938005;29;20036;-73
2023/06/22 08:41:00;;;;;;;11.30;3.90;;;;;;;39.11;25.71;99086.53;4936734;29;19921;-70
2023/06/22 08:43:25;;;;;;;8.35;3.63;;;;;;;39.01;25.89;99077.38;4937079;29;20472;-77
2023/06/22 08:45:50;;;;;;;8.80;3.70;;;;;;;39.01;25.71;99080.09;4936447;29;20039;-76
2023/06/22 08:48:16;;;;;;;7.63;3.75;;;;;;;39.02;25.07;99084.47;4936187;29;20027;-80
2023/06/22 08:50:41;;;;;;;7.28;3.38;;;;;;;38.96;25.04;99074.75;4936376;29;20050;-76
2023/06/22 08:53:07;;;;;;;10.25;3.35;;;;;;;38.97;25.14;99075.56;4919132;29;20048;-76
2023/06/22 08:55:33;;;;;;;6.55;3.78;;;;;;;38.98;24.69;99077.16;4934116;29;20084;-75
2023/06/22 08:57:59;;;;;;;6.73;3.40;;;;;;;38.90;24.68;99070.47;4936024;29;20034;-78
2023/06/22 09:00:24;;;;;;;6.63;3.80;;;;;;;38.82;24.74;99082.84;4935909;29;20032;-76
2023/06/22 09:02:50;;;;;;;8.98;3.72;;;;;;;38.75;24.68;99085.16;4937224;29;20036;-76
2023/06/22 09:05:15;;;;;;;7.47;3.55;;;;;;;38.69;24.93;99076.22;4935674;29;20036;-76
2023/06/22 09:07:41;;;;;;;5.90;3.92;;;;;;;38.62;24.97;99064.91;4936067;29;20155;-75
2023/06/22 09:10:07;;;;;;;5.05;3.70;;;;;;;38.48;25.31;99072.97;4935881;29;20062;-78
2023/06/22 09:12:33;;;;;;;4.30;3.70;;;;;;;38.44;25.62;99076.56;4937024;29;20391;-76
2023/06/22 09:15:02;;;;;;;5.38;3.83;;;;;;;38.38;25.68;99073.09;4920365;29;20146;-77
2023/06/22 09:17:28;;;;;;;4.38;3.80;;;;;;;38.24;25.63;99067.56;4935684;29;20036;-77
2023/06/22 09:19:53;;;;;;;6.30;4.10;;;;;;;38.21;25.50;99064.59;4936018;29;20038;-77
2023/06/22 09:22:19;;;;;;;5.60;3.65;;;;;;;38.15;25.94;99066.56;4936102;29;20043;-76
2023/06/22 09:24:44;;;;;;;6.47;3.65;;;;;;;38.10;26.12;99069.34;4937044;29;20098;-77
2023/06/22 09:27:10;;;;;;;7.32;3.92;;;;;;;37.98;26.08;99067.03;4936718;29;20071;-77
2023/06/22 09:29:35;;;;;;;8.35;3.75;;;;;;;37.96;26.05;99071.97;4936739;29;20036;-76
2023/06/22 09:32:01;;;;;;;4.63;4.00;;;;;;;37.58;26.26;99058.19;4920221;29;20451;-75
2023/06/22 09:34:27;;;;;;;5.00;3.70;;;;;;;37.54;26.65;99062.56;4935642;29;20074;-77
2023/06/22 09:36:52;;;;;;;6.97;4.15;;;;;;;37.57;26.88;99059.28;4903651;29;20030;-75
2023/06/22 09:39:18;;;;;;;7.18;4.07;;;;;;;37.40;27.20;99065.97;4935561;29;20051;-77
2023/06/22 09:41:43;;;;;;;4.97;3.88;;;;;;;37.17;27.72;99072.13;4935061;29;20472;-76
2023/06/22 09:44:09;;;;;;;6.82;4.20;;;;;;;36.89;27.78;99071.78;4935861;29;20055;-76
2023/06/22 09:46:34;;;;;;;8.70;4.30;;;;;;;36.58;27.78;99075.50;4935151;29;20024;-77
2023/06/22 09:49:00;;;;;;;5.40;4.10;;;;;;;36.28;28.07;99068.31;4904088;29;20070;-76
2023/06/22 09:51:25;;;;;;;6.03;3.92;;;;;;;36.00;28.34;99076.00;4935150;29;20031;-78
2023/06/22 09:53:52;;;;;;;9.10;4.38;;;;;;;35.75;28.81;99070.59;4919270;29;20505;-77
2023/06/22 09:56:20;;;;;;;6.10;4.32;;;;;;;35.52;29.23;99072.84;4918974;29;20089;-76
2023/06/22 09:58:46;;;;;;;10.00;4.20;;;;;;;35.30;29.32;99075.84;4904297;29;20480;-79
2023/06/22 10:01:12;;;;;;;6.32;4.15;;;;;;;35.07;29.93;99072.53;4919426;29;20059;-77
2023/06/22 10:03:37;;;;;;;6.75;4.28;;;;;;;34.88;29.79;99074.94;4936441;29;20062;-75
2023/06/22 10:06:03;;;;;;;6.47;4.07;;;;;;;34.84;30.05;99060.31;4936286;29;20040;-76
2023/06/22 10:08:28;;;;;;;7.95;4.50;;;;;;;34.97;30.17;99062.50;4935211;29;20047;-76
2023/06/22 10:10:54;;;;;;;7.10;4.47;;;;;;;35.05;30.09;99061.13;4935964;29;20039;-77
2023/06/22 10:13:19;;;;;;;5.93;4.47;;;;;;;35.15;29.84;99055.72;4936036;29;20039;-79
2023/06/22 10:15:49;;;;;;;4.95;4.20;;;;;;;35.29;30.28;99060.63;4934004;29;20043;-76
2023/06/22 10:18:16;;;;;;;4.70;3.97;;;;;;;35.40;30.21;99062.25;4935694;29;20486;-76
2023/06/22 10:20:41;;;;;;;6.07;4.18;;;;;;;35.57;29.72;99055.72;4934573;29;20484;-77
2023/06/22 10:23:07;;;;;;;5.70;4.03;;;;;;;35.53;30.06;99055.44;4934453;29;20043;-76
2023/06/22 10:25:32;;;;;;;6.53;4.22;;;;;;;35.51;30.43;99057.63;4934281;29;20078;-76
2023/06/22 10:27:58;;;;;;;5.85;4.10;;;;;;;35.55;30.30;99050.56;4934789;29;20028;-76
2023/06/22 10:30:23;;;;;;;6.63;4.30;;;;;;;35.66;30.13;99051.34;4934541;29;20031;-76
2023/06/22 10:32:49;;;;;;;6.43;4.20;;;;;;;35.65;30.66;99053.25;4935881;29;20035;-77
2023/06/22 10:35:15;;;;;;;5.15;4.10;;;;;;;35.76;30.39;99053.28;4934687;29;20063;-76
2023/06/22 10:37:44;;;;;;;6.50;3.90;;;;;;;35.80;30.75;99040.75;4934275;29;20046;-76
2023/06/22 10:40:13;;;;;;;11.73;4.60;;;;;;;35.80;30.43;99046.19;4934261;29;20044;-77
2023/06/22 10:42:39;;;;;;;10.43;4.60;;;;;;;35.74;30.51;99045.38;4934318;29;20027;-75
2023/06/22 10:45:05;;;;;;;8.32;4.40;;;;;;;35.66;30.68;99038.59;4935257;29;20407;-76
2023/06/22 10:47:31;;;;;;;4.57;4.10;;;;;;;35.71;30.86;99043.19;4934236;29;20027;-77
2023/06/22 10:49:56;;;;;;;9.98;4.38;;;;;;;35.74;30.73;99029.06;4935350;29;20411;-75
2023/06/22 10:52:22;;;;;;;4.80;4.30;;;;;;;35.71;30.35;99037.78;4934023;29;20035;-77
2023/06/22 10:54:47;;;;;;;8.52;4.28;;;;;;;35.68;30.15;99016.59;4935214;29;20063;-77
2023/06/22 10:57:13;;;;;;;5.82;4.03;;;;;;;35.60;30.50;99019.88;4935516;29;20514;-76
2023/06/22 10:59:39;;;;;;;8.98;4.13;;;;;;;35.51;30.64;99017.72;4933979;29;20043;-76
2023/06/22 11:02:05;;;;;;;7.20;4.53;;;;;;;35.41;30.90;99022.34;4935492;29;20391;-78
2023/06/22 11:04:30;;;;;;;4.65;4.00;;;;;;;35.42;30.57;99011.22;4918493;29;20046;-77
2023/06/22 11:06:56;;;;;;;10.23;4.13;;;;;;;35.35;30.58;99016.13;4934065;29;20039;-76
2023/06/22 11:09:21;;;;;;;7.68;4.57;;;;;;;35.33;30.77;99024.53;4918100;29;20044;-77
2023/06/22 11:11:47;;;;;;;9.93;4.40;;;;;;;35.32;30.32;99016.66;4933850;29;20032;-78
2023/06/22 11:14:13;;;;;;;5.70;4.57;;;;;;;35.30;30.68;99010.72;4917242;29;20036;-78
2023/06/22 11:16:39;;;;;;;5.45;4.20;;;;;;;35.30;30.51;99010.72;4933911;29;20484;-77
2023/06/22 11:19:04;;;;;;;5.22;3.90;;;;;;;35.24;31.04;99004.44;4935082;29;20035;-76
2023/06/22 11:21:31;;;;;;;10.55;4.25;;;;;;;35.21;30.95;99007.69;4933786;29;20027;-76
2023/06/22 11:23:56;;;;;;;5.93;4.20;;;;;;;35.20;31.18;99008.75;4933741;29;20067;-78
2023/06/22 11:26:22;;;;;;;6.80;4.45;;;;;;;35.15;31.23;99003.34;4933690;29;20122;-80